createdAt,value
2019-02-25T00:01:15.689Z,36.16
2019-02-25T00:03:44.874Z,36.22
2019-02-25T00:06:14.156Z,36.33
2019-02-25T00:08:43.294Z,36.29
2019-02-25T00:11:12.498Z,36.28
2019-02-25T00:13:41.648Z,36.48
2019-02-25T00:16:11.239Z,36.56
2019-02-25T00:18:40.454Z,36.83
2019-02-25T00:21:09.633Z,37.02
2019-02-25T00:23:38.834Z,36.92
2019-02-25T00:26:08.047Z,36.94
2019-02-25T00:28:37.266Z,36.90
2019-02-25T00:31:06.392Z,36.90
2019-02-25T00:33:35.620Z,36.81
2019-02-25T00:36:04.869Z,37.03
2019-02-25T00:38:34.167Z,37.07
2019-02-25T00:41:03.370Z,37.07
2019-02-25T00:43:32.551Z,37.12
2019-02-25T00:46:01.683Z,37.22
2019-02-25T00:48:30.778Z,37.26
2019-02-25T00:50:59.948Z,37.17
2019-02-25T00:53:29.088Z,37.14
2019-02-25T00:55:58.309Z,37.17
2019-02-25T00:58:27.489Z,37.20
2019-02-25T01:00:56.687Z,37.24
2019-02-25T01:03:25.917Z,37.32
2019-02-25T01:05:55.029Z,37.31
2019-02-25T01:08:24.194Z,37.34
2019-02-25T01:10:53.392Z,37.49
2019-02-25T01:13:22.556Z,37.45
2019-02-25T01:15:51.687Z,37.53
2019-02-25T01:18:20.871Z,37.75
2019-02-25T01:20:50.016Z,37.87
2019-02-25T01:23:19.223Z,38.04
2019-02-25T01:25:48.406Z,37.98
2019-02-25T01:28:17.662Z,38.05
2019-02-25T01:30:46.847Z,38.06
2019-02-25T01:33:16.428Z,38.00
2019-02-25T01:35:45.591Z,38.04
2019-02-25T01:38:15.679Z,38.07
2019-02-25T01:40:44.985Z,38.22
2019-02-25T01:43:14.306Z,38.21
2019-02-25T01:45:43.616Z,38.20
2019-02-25T01:48:12.752Z,38.34
2019-02-25T01:50:41.994Z,38.19
2019-02-25T01:53:11.200Z,38.00
2019-02-25T01:55:40.362Z,37.96
2019-02-25T01:58:09.527Z,37.99
2019-02-25T02:00:38.689Z,37.96
2019-02-25T02:03:07.891Z,37.98
2019-02-25T02:05:37.021Z,38.11
2019-02-25T02:08:06.212Z,38.06
2019-02-25T02:10:35.417Z,38.17
2019-02-25T02:13:13.748Z,37.99
2019-02-25T02:15:35.466Z,38.08
2019-02-25T02:18:04.634Z,38.19
2019-02-25T02:20:33.826Z,38.26
2019-02-25T02:23:03.005Z,38.27
2019-02-25T02:25:32.175Z,38.40
2019-02-25T02:28:01.327Z,38.60
2019-02-25T02:30:30.523Z,38.67
2019-02-25T02:32:59.747Z,38.63
2019-02-25T02:35:28.865Z,38.74
2019-02-25T02:37:58.016Z,38.83
2019-02-25T02:40:27.317Z,38.73
2019-02-25T02:42:57.689Z,38.64
2019-02-25T02:45:51.667Z,38.74
2019-02-25T02:48:30.698Z,38.63
2019-02-25T02:50:59.908Z,38.58
2019-02-25T02:53:29.062Z,38.65
2019-02-25T02:55:58.278Z,38.64
2019-02-25T02:58:27.347Z,38.61
2019-02-25T03:00:56.509Z,38.74
2019-02-25T03:03:25.603Z,38.76
2019-02-25T03:05:54.772Z,38.67
2019-02-25T03:08:23.955Z,38.55
2019-02-25T03:10:53.059Z,38.62
2019-02-25T03:13:22.203Z,38.66
2019-02-25T03:15:51.418Z,38.68
2019-02-25T03:18:20.530Z,38.75
2019-02-25T03:20:49.656Z,38.88
2019-02-25T03:23:18.771Z,38.91
2019-02-25T03:25:47.903Z,39.05
2019-02-25T03:28:17.051Z,39.03
2019-02-25T03:30:46.214Z,38.97
2019-02-25T03:33:15.450Z,38.97
2019-02-25T03:35:44.561Z,38.93
2019-02-25T03:38:13.671Z,38.96
2019-02-25T03:40:42.795Z,38.96
2019-02-25T03:43:11.856Z,39.06
2019-02-25T03:45:40.990Z,39.13
2019-02-25T03:48:10.204Z,38.95
2019-02-25T03:50:39.377Z,39.00
2019-02-25T03:53:08.451Z,39.11
2019-02-25T03:55:37.657Z,39.16
2019-02-25T03:58:06.855Z,39.24
2019-02-25T04:00:35.985Z,39.27
2019-02-25T04:03:05.198Z,39.27
2019-02-25T04:05:34.440Z,39.28
2019-02-25T04:08:03.649Z,39.33
2019-02-25T04:10:32.806Z,39.36
2019-02-25T04:13:02.001Z,39.45
2019-02-25T04:15:35.383Z,39.43
2019-02-25T04:18:04.513Z,39.54
2019-02-25T04:20:33.626Z,39.49
2019-02-25T04:23:02.824Z,39.53
2019-02-25T04:25:31.895Z,39.59
2019-02-25T04:28:01.026Z,39.56
2019-02-25T04:30:30.198Z,39.64
2019-02-25T04:32:59.374Z,39.70
2019-02-25T04:35:28.612Z,39.73
2019-02-25T04:37:57.822Z,39.70
2019-02-25T04:40:27.068Z,39.79
2019-02-25T04:42:56.316Z,39.88
2019-02-25T04:45:25.452Z,39.89
2019-02-25T04:47:54.560Z,39.97
2019-02-25T04:50:23.731Z,39.97
2019-02-25T04:52:52.957Z,39.93
2019-02-25T04:55:22.029Z,39.86
2019-02-25T04:57:51.179Z,39.85
2019-02-25T05:00:20.273Z,39.82
2019-02-25T05:02:49.437Z,39.95
2019-02-25T05:05:18.528Z,40.01
2019-02-25T05:07:47.691Z,39.99
2019-02-25T05:10:16.810Z,40.12
2019-02-25T05:12:52.134Z,40.13
2019-02-25T05:15:23.159Z,40.12
2019-02-25T05:17:52.231Z,40.15
2019-02-25T05:20:21.278Z,40.28
2019-02-25T05:22:50.470Z,40.26
2019-02-25T05:25:19.550Z,40.28
2019-02-25T05:27:48.618Z,40.50
2019-02-25T05:30:17.740Z,40.47
2019-02-25T05:32:46.861Z,40.52
2019-02-25T05:35:16.037Z,40.54
2019-02-25T05:37:45.179Z,40.52
2019-02-25T05:40:15.331Z,40.51
2019-02-25T05:42:44.498Z,40.57
2019-02-25T05:45:13.699Z,40.59
2019-02-25T05:47:42.861Z,40.75
2019-02-25T05:50:13.814Z,40.91
2019-02-25T05:52:43.014Z,41.04
2019-02-25T05:55:13.375Z,40.97
2019-02-25T05:57:42.501Z,40.94
2019-02-25T06:00:15.445Z,40.94
2019-02-25T06:02:44.535Z,40.97
2019-02-25T06:05:13.739Z,40.82
2019-02-25T06:07:42.957Z,40.78
2019-02-25T06:10:13.342Z,40.75
2019-02-25T06:12:42.554Z,41.03
2019-02-25T06:15:12.852Z,41.10
2019-02-25T06:17:41.983Z,41.13
2019-02-25T06:20:11.772Z,41.21
2019-02-25T06:22:41.062Z,41.26
2019-02-25T06:25:10.265Z,41.41
2019-02-25T06:27:39.392Z,41.53
2019-02-25T06:30:12.264Z,41.54
2019-02-25T06:32:41.460Z,41.62
2019-02-25T06:35:10.882Z,41.80
2019-02-25T06:37:40.149Z,41.95
2019-02-25T06:40:10.883Z,41.99
2019-02-25T06:42:39.988Z,41.88
2019-02-25T06:45:10.571Z,41.80
2019-02-25T06:47:39.768Z,41.74
2019-02-25T06:50:09.302Z,41.74
2019-02-25T06:52:38.500Z,41.60
2019-02-25T06:55:08.564Z,41.52
2019-02-25T06:57:37.746Z,41.53
2019-02-25T07:00:09.522Z,41.52
2019-02-25T07:02:38.729Z,41.42
2019-02-25T07:05:22.666Z,41.45
2019-02-25T07:08:00.636Z,41.31
2019-02-25T07:10:43.786Z,41.10
2019-02-25T07:13:20.755Z,40.38
2019-02-25T07:15:55.485Z,39.49
2019-02-25T07:18:52.359Z,38.64
2019-02-25T07:21:31.473Z,37.52
2019-02-25T07:24:31.416Z,36.45
2019-02-25T07:27:24.703Z,35.20
2019-02-25T07:30:11.367Z,33.45
2019-02-25T07:33:08.579Z,32.46
2019-02-25T07:35:50.832Z,31.84
2019-02-25T07:38:50.681Z,31.20
2019-02-25T07:41:38.262Z,29.78
2019-02-25T07:44:32.097Z,29.06
2019-02-25T07:47:35.080Z,28.56
2019-02-25T07:50:17.555Z,28.11
2019-02-25T07:53:14.484Z,27.74
2019-02-25T07:56:02.785Z,26.64
2019-02-25T07:58:50.810Z,25.27
2019-02-25T08:01:54.120Z,24.82
2019-02-25T08:04:28.632Z,24.11
2019-02-25T08:07:35.055Z,23.72
2019-02-25T08:10:14.292Z,23.37
2019-02-25T08:12:56.486Z,23.46
2019-02-25T08:15:53.582Z,23.40
2019-02-25T08:18:47.340Z,23.16
2019-02-25T08:21:29.825Z,22.79
2019-02-25T08:24:17.871Z,22.04
2019-02-25T08:27:14.955Z,21.42
2019-02-25T08:30:02.995Z,20.59
2019-02-25T08:32:47.805Z,19.87
2019-02-25T08:36:08.958Z,19.13
2019-02-25T08:38:54.977Z,18.61
2019-02-25T08:41:38.259Z,17.75
2019-02-25T08:44:44.548Z,17.10
2019-02-25T08:47:35.521Z,16.73
2019-02-25T08:50:07.312Z,16.02
2019-02-25T08:52:36.504Z,15.33
2019-02-25T08:55:06.642Z,14.93
2019-02-25T08:57:37.164Z,14.74
2019-02-25T09:00:08.345Z,14.51
2019-02-25T09:02:37.459Z,14.21
2019-02-25T09:05:08.688Z,14.03
2019-02-25T09:07:37.811Z,13.87
2019-02-25T09:10:07.790Z,13.32
2019-02-25T09:12:36.864Z,13.28
2019-02-25T09:15:06.808Z,13.11
2019-02-25T09:17:44.407Z,12.87
2019-02-25T09:20:14.081Z,12.71
2019-02-25T09:22:43.244Z,12.18
2019-02-25T09:25:12.511Z,11.87
2019-02-25T09:27:41.625Z,11.76
2019-02-25T09:30:16.069Z,11.63
2019-02-25T09:32:45.358Z,11.43
2019-02-25T09:35:14.508Z,11.14
2019-02-25T09:37:43.557Z,10.73
2019-02-25T09:40:14.559Z,10.73
2019-02-25T09:42:43.657Z,10.26
2019-02-25T09:45:14.174Z,10.09
2019-02-25T09:47:43.252Z,9.70
2019-02-25T09:50:13.549Z,9.10
2019-02-25T09:52:42.622Z,9.03
2019-02-25T09:55:12.145Z,8.53
2019-02-25T09:57:41.252Z,8.13
2019-02-25T10:00:14.155Z,7.81
2019-02-25T10:02:43.319Z,7.56
2019-02-25T10:05:12.425Z,7.25
2019-02-25T10:07:41.455Z,7.18
2019-02-25T10:10:12.425Z,7.06
2019-02-25T10:12:41.453Z,6.94
2019-02-25T10:15:12.287Z,6.30
2019-02-25T10:17:41.403Z,6.20
2019-02-25T10:20:10.622Z,6.18
2019-02-25T10:22:39.727Z,6.02
2019-02-25T10:25:08.866Z,5.91
2019-02-25T10:27:37.908Z,5.81
2019-02-25T10:30:08.141Z,5.43
2019-02-25T10:32:37.204Z,5.24
2019-02-25T10:35:09.317Z,5.16
2019-02-25T10:37:38.776Z,5.06
2019-02-25T10:40:13.145Z,5.08
2019-02-25T10:42:42.390Z,5.02
2019-02-25T10:45:14.157Z,5.00
2019-02-25T10:47:44.328Z,4.74
2019-02-25T10:50:14.113Z,4.73
2019-02-25T10:52:44.798Z,4.65
2019-02-25T10:55:17.578Z,4.59
2019-02-25T10:57:46.644Z,4.43
2019-02-25T11:00:16.581Z,4.43
2019-02-25T11:02:46.857Z,4.37
2019-02-25T11:05:16.542Z,4.24
2019-02-25T11:07:45.649Z,4.18
2019-02-25T11:10:36.583Z,3.98
2019-02-25T11:13:05.801Z,3.88
2019-02-25T11:15:37.502Z,3.80
2019-02-25T11:18:07.510Z,3.71
2019-02-25T11:20:37.817Z,3.62
2019-02-25T11:23:07.201Z,3.63
2019-02-25T11:25:36.403Z,3.52
2019-02-25T11:28:07.605Z,3.34
2019-02-25T11:30:36.291Z,3.30
2019-02-25T11:33:05.440Z,3.40
2019-02-25T11:35:36.506Z,3.29
2019-02-25T11:38:05.439Z,3.37
2019-02-25T11:40:36.565Z,3.32
2019-02-25T11:43:05.663Z,3.19
2019-02-25T11:45:36.317Z,3.27
2019-02-25T11:48:05.630Z,3.21
2019-02-25T11:50:34.660Z,3.27
2019-02-25T11:53:03.762Z,3.35
2019-02-25T11:55:32.859Z,3.15
2019-02-25T11:58:01.944Z,3.17
2019-02-25T12:00:31.005Z,3.20
2019-02-25T12:03:00.169Z,3.22
2019-02-25T12:05:29.311Z,3.29
2019-02-25T12:07:58.424Z,3.39
2019-02-25T12:10:27.485Z,3.34
2019-02-25T12:12:56.685Z,3.41
2019-02-25T12:15:25.810Z,3.38
2019-02-25T12:17:54.952Z,3.41
2019-02-25T12:20:24.215Z,3.68
2019-02-25T12:22:53.277Z,4.01
2019-02-25T12:25:22.378Z,4.09
2019-02-25T12:27:51.614Z,4.08
2019-02-25T12:30:20.876Z,4.05
2019-02-25T12:32:50.243Z,4.15
2019-02-25T12:35:19.433Z,4.74
2019-02-25T12:37:48.572Z,5.27
2019-02-25T12:40:17.845Z,5.80
2019-02-25T12:42:46.897Z,6.16
2019-02-25T12:45:16.086Z,6.85
2019-02-25T12:47:45.198Z,7.44
2019-02-25T12:50:14.268Z,8.21
2019-02-25T12:52:43.341Z,9.13
2019-02-25T12:55:12.441Z,9.94
2019-02-25T12:57:41.437Z,10.71
2019-02-25T13:00:13.338Z,11.11
2019-02-25T13:02:42.522Z,11.69
2019-02-25T13:05:13.591Z,12.14
2019-02-25T13:07:42.734Z,12.46
2019-02-25T13:10:13.674Z,12.85
2019-02-25T13:12:42.812Z,13.22
2019-02-25T13:15:13.852Z,13.48
2019-02-25T13:17:42.962Z,13.80
2019-02-25T13:20:12.134Z,14.34
2019-02-25T13:22:41.245Z,14.39
2019-02-25T13:25:13.056Z,14.18
2019-02-25T13:27:42.027Z,14.37
2019-02-25T13:30:13.784Z,14.65
2019-02-25T13:32:43.053Z,14.36
2019-02-25T13:35:13.082Z,14.25
2019-02-25T13:37:43.509Z,14.50
2019-02-25T13:40:12.745Z,14.48
2019-02-25T13:42:41.860Z,14.46
2019-02-25T13:45:12.143Z,14.35
2019-02-25T13:47:41.331Z,14.46
2019-02-25T13:50:11.350Z,14.47
2019-02-25T13:52:48.020Z,14.56
2019-02-25T13:55:11.355Z,14.60
2019-02-25T13:57:40.640Z,14.49
2019-02-25T14:00:16.517Z,14.35
2019-02-25T14:02:45.882Z,14.40
2019-02-25T14:05:15.131Z,14.46
2019-02-25T14:07:44.427Z,14.54
2019-02-25T14:10:13.627Z,14.65
2019-02-25T14:12:42.995Z,14.78
2019-02-25T14:15:14.524Z,14.80
2019-02-25T14:17:43.705Z,14.87
2019-02-25T14:20:15.078Z,14.89
2019-02-25T14:22:44.174Z,15.00
2019-02-25T14:25:13.508Z,14.83
2019-02-25T14:27:42.726Z,14.71
2019-02-25T14:30:14.929Z,14.63
2019-02-25T14:32:44.396Z,14.63
2019-02-25T14:35:13.543Z,14.71
2019-02-25T14:37:42.627Z,14.70
2019-02-25T14:40:16.669Z,14.57
2019-02-25T14:42:46.832Z,14.72
2019-02-25T14:45:17.068Z,14.74
2019-02-25T14:47:46.984Z,14.67
2019-02-25T14:50:16.517Z,14.92
2019-02-25T14:52:45.697Z,14.95
2019-02-25T14:55:15.121Z,15.07
2019-02-25T14:57:44.421Z,14.98
2019-02-25T15:00:16.187Z,15.03
2019-02-25T15:02:45.995Z,14.99
2019-02-25T15:05:17.315Z,15.11
2019-02-25T15:07:48.683Z,15.25
2019-02-25T15:10:18.040Z,15.21
2019-02-25T15:12:47.199Z,15.30
2019-02-25T15:15:16.377Z,15.39
2019-02-25T15:17:46.122Z,15.47
2019-02-25T15:20:18.279Z,15.61
2019-02-25T15:22:47.247Z,15.74
2019-02-25T15:25:16.585Z,15.83
2019-02-25T15:27:45.804Z,15.79
2019-02-25T15:30:18.581Z,15.83
2019-02-25T15:32:55.791Z,15.90
2019-02-25T15:35:19.886Z,15.98
2019-02-25T15:37:50.667Z,16.11
2019-02-25T15:40:21.064Z,16.12
2019-02-25T15:43:03.087Z,16.19
2019-02-25T15:45:35.430Z,16.33
2019-02-25T15:48:06.189Z,16.45
2019-02-25T15:50:35.653Z,16.48
2019-02-25T15:53:06.833Z,16.60
2019-02-25T15:55:35.772Z,16.86
2019-02-25T15:58:05.199Z,17.13
2019-02-25T16:00:36.710Z,17.73
2019-02-25T16:03:06.178Z,18.40
2019-02-25T16:05:38.300Z,18.92
2019-02-25T16:08:07.573Z,19.53
2019-02-25T16:10:36.668Z,19.82
2019-02-25T16:13:09.424Z,20.01
2019-02-25T16:15:36.702Z,20.21
2019-02-25T16:18:05.958Z,20.39
2019-02-25T16:20:35.099Z,20.60
2019-02-25T16:23:05.907Z,20.73
2019-02-25T16:25:35.948Z,20.83
2019-02-25T16:28:05.952Z,21.06
2019-02-25T16:30:36.208Z,20.90
2019-02-25T16:33:07.261Z,20.99
2019-02-25T16:35:41.194Z,21.11
2019-02-25T16:58:03.713Z,21.81
2019-02-25T17:00:35.411Z,22.00
2019-02-25T17:03:06.572Z,22.07
2019-02-25T17:05:38.046Z,22.58
2019-02-25T17:08:12.433Z,22.75
2019-02-25T17:10:41.608Z,22.84
2019-02-25T17:13:14.334Z,22.82
2019-02-25T17:15:45.956Z,22.91
2019-02-25T17:18:15.125Z,23.02
2019-02-25T17:20:45.398Z,23.12
2019-02-25T17:23:16.727Z,23.50
2019-02-25T17:25:46.542Z,23.52
2019-02-25T17:28:18.044Z,23.42
2019-02-25T17:30:49.121Z,23.57
2019-02-25T17:41:25.060Z,24.95
2019-02-25T17:43:55.415Z,25.40
2019-02-25T17:46:26.387Z,25.60
2019-02-25T17:48:56.353Z,26.02
2019-02-25T17:51:25.628Z,26.27
2019-02-25T17:53:56.448Z,26.22
2019-02-25T17:56:26.978Z,26.17
2019-02-25T17:58:58.689Z,26.54
2019-02-25T18:01:28.197Z,27.01
2019-02-25T18:03:57.556Z,27.30
2019-02-25T18:06:29.646Z,27.61
2019-02-25T18:08:59.759Z,27.70
2019-02-25T18:11:28.819Z,27.88
2019-02-25T18:13:58.426Z,28.24
2019-02-25T18:16:27.669Z,28.39
2019-02-25T18:18:57.306Z,28.50
2019-02-25T18:21:28.913Z,28.75
2019-02-25T18:23:58.168Z,28.89
2019-02-25T18:26:31.028Z,29.11
2019-02-25T18:29:00.429Z,29.38
2019-02-25T18:31:29.938Z,29.50
2019-02-25T18:33:59.806Z,29.61
2019-02-25T18:36:30.680Z,29.85
2019-02-25T18:39:00.279Z,30.14
2019-02-25T18:41:33.640Z,30.46
2019-02-25T18:44:00.846Z,30.64
2019-02-25T18:46:30.249Z,30.86
2019-02-25T18:49:00.035Z,32.63
2019-02-25T18:51:30.508Z,32.43
2019-02-25T18:54:02.030Z,31.73
2019-02-25T18:56:31.521Z,31.59
2019-02-25T18:59:09.587Z,31.56
2019-02-25T19:01:32.345Z,31.69
2019-02-25T19:04:01.565Z,31.76
2019-02-25T19:06:30.808Z,31.79
2019-02-25T19:09:00.041Z,31.93
2019-02-25T19:11:29.347Z,31.86
2019-02-25T19:14:01.832Z,32.12
2019-02-25T19:16:29.841Z,32.21
2019-02-25T19:19:03.537Z,32.33
2019-02-25T19:21:31.752Z,32.46
2019-02-25T19:24:03.261Z,32.70
2019-02-25T19:26:32.317Z,32.73
2019-02-25T19:29:01.518Z,32.85
2019-02-25T19:31:30.908Z,33.03
2019-02-25T19:34:00.929Z,33.04
2019-02-25T19:36:32.514Z,33.35
2019-02-25T19:39:05.073Z,33.34
2019-02-25T19:41:32.750Z,33.38
2019-02-25T19:44:04.176Z,33.54
2019-02-25T19:46:32.935Z,33.63
2019-02-25T19:49:02.226Z,33.80
2019-02-25T19:51:31.553Z,33.89
2019-02-25T19:54:02.673Z,34.00
2019-02-25T19:56:31.973Z,34.42
2019-02-25T19:59:03.238Z,34.69
2019-02-25T20:01:32.284Z,35.00
2019-02-25T20:04:04.325Z,34.86
2019-02-25T20:06:32.891Z,34.83
2019-02-25T20:09:02.286Z,34.93
2019-02-25T20:11:31.493Z,35.10
2019-02-25T20:14:01.638Z,35.26
2019-02-25T20:16:32.280Z,35.47
2019-02-25T20:19:02.602Z,35.54
2019-02-25T20:21:32.829Z,35.86
2019-02-25T20:24:02.213Z,36.00
2019-02-25T20:26:32.653Z,36.07
2019-02-25T20:29:03.980Z,36.12
2019-02-25T20:31:33.750Z,36.25
2019-02-25T20:34:02.990Z,36.36
2019-02-25T20:36:32.731Z,36.60
2019-02-25T20:39:02.173Z,36.79
2019-02-25T20:41:31.638Z,36.79
2019-02-25T20:44:03.287Z,36.85
2019-02-25T20:46:32.757Z,36.83
2019-02-25T20:49:03.020Z,36.95
2019-02-25T20:51:33.766Z,37.15
2019-02-25T20:54:03.372Z,37.29
2019-02-25T20:56:33.318Z,37.43
2019-02-25T20:59:06.133Z,37.60
2019-02-25T21:01:37.447Z,37.75
2019-02-25T21:04:06.020Z,37.88
2019-02-25T21:06:35.761Z,37.98
2019-02-25T21:09:08.829Z,38.20
2019-02-25T21:11:37.974Z,38.30
2019-02-25T21:14:07.118Z,38.46
2019-02-25T21:16:36.197Z,38.46
2019-02-25T21:19:05.391Z,38.59
2019-02-25T21:21:35.184Z,38.80
2019-02-25T21:24:06.248Z,38.75
2019-02-25T21:26:37.060Z,38.77
2019-02-25T21:29:09.591Z,38.90
2019-02-25T21:31:42.757Z,39.02
2019-02-25T21:34:08.737Z,39.17
2019-02-25T21:36:38.683Z,39.35
2019-02-25T21:39:12.355Z,39.43
2019-02-25T21:41:43.456Z,39.50
2019-02-25T21:44:16.697Z,39.61
2019-02-25T21:46:43.162Z,39.69
2019-02-25T21:49:12.346Z,39.86
2019-02-25T21:51:43.664Z,39.90
2019-02-25T21:54:12.684Z,40.02
2019-02-25T21:56:41.823Z,40.20
2019-02-25T21:59:12.620Z,40.36
2019-02-25T22:01:41.808Z,40.64
2019-02-25T22:04:13.139Z,40.65
2019-02-25T22:06:41.949Z,40.85
2019-02-25T22:09:11.132Z,40.93
2019-02-25T22:11:40.281Z,40.89
2019-02-25T22:14:09.500Z,40.97
2019-02-25T22:16:43.989Z,40.95
2019-02-25T22:19:11.668Z,41.01
2019-02-25T22:21:40.559Z,41.00
2019-02-25T22:24:09.787Z,41.03
2019-02-25T22:26:38.937Z,41.15
2019-02-25T22:29:08.106Z,41.28
2019-02-25T22:31:37.714Z,41.38
2019-02-25T22:34:08.806Z,41.46
2019-02-25T22:36:41.603Z,41.53
2019-02-25T22:39:09.607Z,41.64
2019-02-25T22:41:40.246Z,41.97
2019-02-25T22:44:10.647Z,42.04
2019-02-25T22:46:41.714Z,42.08
2019-02-25T22:49:10.659Z,42.14
2019-02-25T22:51:40.625Z,42.17
2019-02-25T22:54:10.313Z,42.24
2019-02-25T22:56:40.588Z,42.32
2019-02-25T22:59:09.754Z,42.37
2019-02-25T23:01:38.814Z,42.41
2019-02-25T23:04:11.112Z,42.73
2019-02-25T23:06:42.050Z,42.74
2019-02-25T23:09:12.258Z,42.77
2019-02-25T23:11:43.623Z,42.84
2019-02-25T23:14:13.530Z,43.10
2019-02-25T23:16:43.671Z,43.09
2019-02-25T23:19:13.668Z,43.09
2019-02-25T23:21:44.033Z,43.08
2019-02-25T23:24:13.126Z,43.11
2019-02-25T23:26:42.286Z,43.08
2019-02-25T23:29:11.500Z,43.15
2019-02-25T23:31:40.642Z,43.24
2019-02-25T23:34:10.280Z,43.27
2019-02-25T23:36:43.070Z,43.33
2019-02-25T23:39:11.438Z,43.37
2019-02-25T23:41:41.474Z,43.44
2019-02-25T23:44:13.293Z,43.52
2019-02-25T23:46:42.956Z,43.55
2019-02-25T23:49:12.101Z,43.54
2019-02-25T23:51:42.031Z,43.63
2019-02-25T23:54:16.056Z,43.83
2019-02-25T23:56:43.903Z,43.94
2019-02-25T23:59:14.815Z,44.06
